Terminal Aerodrome Forecast
Issued by NWS Sioux Falls, SD

Home | Current Version | Previous Version | Graphics & Text | Print | Product List | Glossary On
Versions: 1 2 3 4 5 6 7 8 9 10 11 12 13 14 15 16 17 18
000
FTUS43 KFSD 241653 AAA
TAFFSD
TAF AMD
KFSD 241653Z 2417/2512 16015G22KT P6SM SCT028 BKN180
     FM242000 15011G17KT P6SM BKN035
     FM250100 12011KT P6SM -SHRA OVC022
     FM250500 08009KT 6SM -RA BR OVC012=

USA.gov is the U.S. government's official web portal to all federal, state and local government web resources and services.